Time;durP1;ratioP1;P1;durP2;ratioP2;P2;SDS_P1;SDS_P2;PMS_P1;PMS_P2;Temp;Humidity;BMP_temperature;BMP_pressure;BME280_temperature;BME280_humidity;BME280_pressure;Samples;Min_cycle;Max_cycle;Signal;HPM_P1;HPM_P2
2021/01/12 00:00:31;;;;;;;14.65;9.18;;;;;;;-2.46;60.44;97611.50;12970061;22;20058;-75
2021/01/12 00:05:51;;;;;;;15.05;9.73;;;;;;;-2.44;60.11;97603.53;12969739;22;20034;-75
2021/01/12 00:11:11;;;;;;;15.30;10.60;;;;;;;-2.55;59.88;97573.56;12991363;22;20081;-75
2021/01/12 00:16:30;;;;;;;13.75;9.30;;;;;;;-2.72;59.57;97571.69;12991228;22;20034;-76
2021/01/12 00:21:50;;;;;;;14.68;9.60;;;;;;;-2.93;60.11;97568.63;12964582;22;20057;-75
2021/01/12 00:27:11;;;;;;;14.60;9.00;;;;;;;-3.04;60.41;97567.97;12970807;22;20027;-75
2021/01/12 00:32:31;;;;;;;15.18;8.85;;;;;;;-3.02;60.45;97574.41;12970739;22;20027;-75
2021/01/12 00:37:51;;;;;;;13.48;9.52;;;;;;;-2.93;60.44;97574.09;12969197;22;20409;-75
2021/01/12 00:43:11;;;;;;;12.75;8.70;;;;;;;-2.97;60.05;97568.19;12948358;22;20510;-75
2021/01/12 00:48:30;;;;;;;13.88;8.75;;;;;;;-2.98;60.35;97568.69;12969676;22;20027;-76
2021/01/12 00:53:50;;;;;;;13.80;9.00;;;;;;;-3.00;60.61;97580.09;12991665;22;20027;-75
2021/01/12 00:59:10;;;;;;;14.50;9.57;;;;;;;-3.04;60.61;97590.56;12969230;22;20031;-75
2021/01/12 01:04:30;;;;;;;13.30;8.93;;;;;;;-3.10;60.52;97581.66;12989955;22;20075;-75
2021/01/12 01:09:50;;;;;;;13.43;8.88;;;;;;;-3.14;60.58;97570.28;13013173;22;20074;-75
2021/01/12 01:15:10;;;;;;;15.90;10.10;;;;;;;-3.07;60.75;97539.69;12968713;22;20027;-75
2021/01/12 01:20:30;;;;;;;15.68;8.98;;;;;;;-3.02;60.39;97549.84;12968866;22;20106;-75
2021/01/12 01:25:50;;;;;;;15.02;9.88;;;;;;;-2.99;60.49;97550.81;12989783;22;20051;-75
2021/01/12 01:31:11;;;;;;;16.10;10.57;;;;;;;-3.03;60.16;97551.09;12947685;22;20028;-75
2021/01/12 01:36:30;;;;;;;14.45;9.77;;;;;;;-3.07;60.79;97553.34;12927030;22;20051;-75
2021/01/12 01:41:50;;;;;;;15.55;10.23;;;;;;;-3.02;60.93;97562.75;12989345;22;20031;-75
2021/01/12 01:47:10;;;;;;;14.55;9.88;;;;;;;-3.02;60.72;97554.56;12989946;22;20024;-75
2021/01/12 01:52:30;;;;;;;14.02;9.07;;;;;;;-3.01;60.91;97547.84;13011818;22;20153;-75
2021/01/12 01:57:49;;;;;;;15.50;10.35;;;;;;;-3.05;60.20;97534.47;12946261;22;20095;-75
2021/01/12 02:03:12;;;;;;;15.18;9.85;;;;;;;-2.82;60.62;97517.91;12966620;22;20408;-75
2021/01/12 02:09:03;;;;;;;17.45;10.82;;;;;;;-2.65;60.00;97524.69;13009494;22;20054;-75
2021/01/12 02:14:23;;;;;;;15.55;10.45;;;;;;;-2.55;59.48;97510.69;12943546;22;20027;-75
2021/01/12 02:19:43;;;;;;;16.50;10.05;;;;;;;-2.44;59.31;97503.13;12988391;22;20031;-75
2021/01/12 02:25:04;;;;;;;14.65;10.25;;;;;;;-2.40;59.27;97511.78;12949721;22;20032;-75
2021/01/12 02:30:23;;;;;;;15.25;10.20;;;;;;;-2.32;59.54;97498.28;12946363;22;20024;-75
2021/01/12 02:35:47;;;;;;;15.75;10.35;;;;;;;-2.28;59.05;97490.53;13011220;22;20055;-75
2021/01/12 02:41:12;;;;;;;15.30;10.27;;;;;;;-2.25;59.15;97475.81;12989490;22;20032;-75
2021/01/12 02:46:32;;;;;;;16.40;10.07;;;;;;;-2.23;59.14;97462.38;12924260;22;20031;-75
2021/01/12 02:51:51;;;;;;;15.85;10.63;;;;;;;-2.21;59.35;97454.41;12945543;22;20032;-75
2021/01/12 02:57:11;;;;;;;15.32;10.85;;;;;;;-2.17;59.42;97443.91;12946702;22;20027;-75
2021/01/12 03:02:31;;;;;;;17.48;10.52;;;;;;;-2.20;60.10;97430.53;12966340;22;20034;-75
2021/01/12 03:07:51;;;;;;;17.23;10.20;;;;;;;-2.23;59.96;97418.63;12945311;22;20095;-75
2021/01/12 03:13:12;;;;;;;14.50;9.75;;;;;;;-2.18;60.16;97398.69;12945859;22;20034;-75
2021/01/12 03:18:31;;;;;;;14.77;9.25;;;;;;;-2.14;60.18;97399.13;12989904;22;20446;-75
2021/01/12 03:23:51;;;;;;;13.50;9.02;;;;;;;-2.13;60.96;97373.25;12974034;22;20062;-75
2021/01/12 03:29:13;;;;;;;15.13;9.70;;;;;;;-2.09;61.12;97353.81;12988226;22;20072;-75
2021/01/12 03:34:33;;;;;;;14.65;9.65;;;;;;;-2.15;61.57;97345.69;12945012;22;20103;-75
2021/01/12 03:39:53;;;;;;;16.70;10.75;;;;;;;-2.14;60.88;97330.75;12966540;22;20024;-75
2021/01/12 03:45:14;;;;;;;13.35;8.75;;;;;;;-2.17;60.83;97340.00;12966417;22;20061;-75
2021/01/12 03:50:34;;;;;;;14.75;9.45;;;;;;;-2.09;60.73;97321.75;12946860;22;20073;-75
2021/01/12 03:55:53;;;;;;;16.33;9.63;;;;;;;-1.99;60.63;97319.34;12991219;22;20149;-75
2021/01/12 04:01:13;;;;;;;15.18;9.43;;;;;;;-2.00;61.40;97304.19;12948313;22;20110;-75
2021/01/12 04:06:33;;;;;;;14.55;9.60;;;;;;;-2.00;61.26;97298.72;12971124;22;20035;-75
2021/01/12 04:11:53;;;;;;;14.55;9.85;;;;;;;-1.99;61.45;97302.22;12949882;22;20027;-75
2021/01/12 04:17:13;;;;;;;16.17;10.60;;;;;;;-2.05;61.78;97281.13;12990844;22;20027;-75
2021/01/12 04:22:34;;;;;;;17.95;10.45;;;;;;;-2.09;63.25;97269.78;12939379;22;20463;-75
2021/01/12 04:27:54;;;;;;;16.98;10.88;;;;;;;-1.99;63.49;97266.66;12990415;22;20069;-75
2021/01/12 04:33:14;;;;;;;17.02;10.18;;;;;;;-1.95;63.74;97245.91;12969158;22;20059;-75
2021/01/12 04:38:34;;;;;;;16.30;10.43;;;;;;;-1.89;64.13;97221.22;12970293;22;20498;-75
2021/01/12 04:43:53;;;;;;;17.95;11.63;;;;;;;-1.86;64.04;97231.84;12968752;22;20028;-75
2021/01/12 04:49:13;;;;;;;15.52;9.82;;;;;;;-1.81;63.05;97203.66;12990864;22;20035;-75
2021/01/12 04:54:34;;;;;;;17.27;10.45;;;;;;;-1.84;64.59;97195.75;12970009;22;20027;-75
2021/01/12 04:59:56;;;;;;;18.63;11.70;;;;;;;-1.81;64.88;97187.25;12947096;22;20074;-75
2021/01/12 05:05:16;;;;;;;17.75;10.68;;;;;;;-1.84;64.98;97168.38;12991710;22;20028;-75
2021/01/12 05:10:40;;;;;;;18.35;10.52;;;;;;;-1.76;64.85;97163.75;12947538;22;20082;-75
2021/01/12 05:16:05;;;;;;;16.73;10.33;;;;;;;-1.69;65.32;97151.47;12948283;22;20094;-75
2021/01/12 05:21:26;;;;;;;14.48;9.85;;;;;;;-1.62;64.15;97157.03;12964382;22;20028;-75
2021/01/12 05:26:46;;;;;;;16.00;10.45;;;;;;;-1.58;65.65;97157.47;12946987;22;20059;-75
2021/01/12 05:32:11;;;;;;;17.10;9.93;;;;;;;-1.55;65.64;97148.19;12990859;22;20107;-75
2021/01/12 05:37:30;;;;;;;16.98;10.13;;;;;;;-1.54;66.05;97157.16;12946794;22;20042;-75
2021/01/12 05:42:50;;;;;;;18.38;10.77;;;;;;;-1.56;66.18;97143.97;12967791;22;20073;-75
2021/01/12 05:48:11;;;;;;;16.20;9.73;;;;;;;-1.58;66.39;97124.59;12968451;22;20028;-75
2021/01/12 05:53:46;;;;;;;15.25;9.82;;;;;;;-1.61;66.91;97117.47;12968460;22;20168;-75
2021/01/12 05:59:07;;;;;;;17.75;9.77;;;;;;;-1.54;66.82;97119.56;13011528;22;20027;-75
2021/01/12 06:04:27;;;;;;;16.45;10.45;;;;;;;-1.47;67.83;97102.47;12946343;22;20024;-75
2021/01/12 06:09:46;;;;;;;15.65;9.13;;;;;;;-1.38;67.85;97125.22;12967054;22;20080;-76
2021/01/12 06:15:07;;;;;;;16.38;9.95;;;;;;;-1.32;68.01;97095.72;12945837;22;20027;-75
2021/01/12 06:20:27;;;;;;;15.88;10.18;;;;;;;-1.23;67.62;97103.50;12967043;22;20320;-75
2021/01/12 06:25:48;;;;;;;15.50;9.68;;;;;;;-1.18;68.17;97099.91;12946847;22;20027;-77
2021/01/12 06:31:10;;;;;;;14.68;9.38;;;;;;;-1.12;67.58;97095.03;13021390;22;20034;-80
2021/01/12 06:36:29;;;;;;;16.90;10.27;;;;;;;-1.06;68.00;97103.88;12992550;22;20020;-80
2021/01/12 06:41:50;;;;;;;17.33;10.60;;;;;;;-1.01;67.71;97088.56;12971163;22;20027;-79
2021/01/12 06:47:10;;;;;;;13.80;10.00;;;;;;;-1.09;69.09;97080.28;12991260;22;20034;-79
2021/01/12 06:52:46;;;;;;;17.30;10.25;;;;;;;-1.06;69.58;97068.28;13012329;22;20031;-79
2021/01/12 06:58:09;;;;;;;;;;;;;;;-1.03;69.63;97058.97;13014864;22;20063;-79
2021/01/12 07:03:31;;;;;;;16.25;9.80;;;;;;;-0.91;69.53;97040.28;13014483;22;19915;-79
2021/01/12 07:08:51;;;;;;;15.75;9.63;;;;;;;-0.91;69.95;97038.25;13012785;22;20101;-79
2021/01/12 07:14:10;;;;;;;15.90;9.57;;;;;;;-0.83;69.23;97045.81;12968937;22;20024;-80
2021/01/12 07:19:34;;;;;;;15.93;9.38;;;;;;;-0.78;70.03;97017.53;12989665;22;20028;-80
2021/01/12 07:24:54;;;;;;;16.13;9.75;;;;;;;-0.72;69.42;97005.16;12975463;22;20019;-80
2021/01/12 07:30:15;;;;;;;15.05;9.68;;;;;;;-0.67;70.15;97012.53;12973284;22;20034;-79
2021/01/12 07:35:36;;;;;;;15.35;9.50;;;;;;;-0.54;70.13;96995.25;12993707;22;20032;-78
2021/01/12 07:41:00;;;;;;;15.32;9.98;;;;;;;-0.48;71.48;96984.13;13015643;22;20062;-79
2021/01/12 07:46:24;;;;;;;15.57;9.82;;;;;;;-0.33;70.88;96978.75;13015352;22;20043;-78
2021/01/12 07:51:46;;;;;;;14.40;9.68;;;;;;;-0.25;71.12;96965.09;12993518;22;20028;-79
2021/01/12 07:57:06;;;;;;;15.98;9.93;;;;;;;-0.21;72.06;96976.44;12970296;22;20035;-79
2021/01/12 08:02:26;;;;;;;15.80;9.77;;;;;;;-0.30;74.28;96970.16;12991941;22;20368;-78
2021/01/12 08:07:46;;;;;;;14.73;9.73;;;;;;;-0.30;74.20;96986.63;12970658;22;20028;-77
2021/01/12 08:13:10;;;;;;;14.32;9.00;;;;;;;-0.53;77.89;96954.88;12991819;22;20055;-79
2021/01/12 08:18:30;;;;;;;16.35;9.82;;;;;;;-0.56;80.94;96959.41;13014655;22;20450;-78
2021/01/12 08:23:59;;;;;;;15.40;10.13;;;;;;;-0.55;81.86;96952.66;12977499;22;20027;-79
2021/01/12 08:29:26;;;;;;;14.40;9.13;;;;;;;-0.06;83.17;96943.59;13014691;22;20082;-79
2021/01/12 08:35:00;;;;;;;13.40;9.00;;;;;;;-0.26;83.33;96934.19;13012052;22;20028;-79
2021/01/12 08:40:20;;;;;;;12.73;8.77;;;;;;;0.06;81.98;96922.03;12990485;22;20024;-79
2021/01/12 08:45:40;;;;;;;15.73;9.25;;;;;;;0.24;80.56;96932.00;12990195;22;20071;-79
2021/01/12 08:51:00;;;;;;;12.93;8.90;;;;;;;-0.38;81.66;96898.13;12968591;22;20047;-78
2021/01/12 08:56:24;;;;;;;13.75;8.43;;;;;;;-0.35;86.51;96897.03;12989839;22;20027;-79
2021/01/12 09:01:44;;;;;;;14.05;9.23;;;;;;;-0.38;82.44;96889.88;12969780;22;20098;-78
2021/01/12 09:07:06;;;;;;;12.68;8.45;;;;;;;-0.40;82.95;96897.16;12971096;22;20028;-79
2021/01/12 09:12:27;;;;;;;12.70;9.10;;;;;;;-0.35;83.19;96880.56;12991220;22;20485;-77
2021/01/12 09:17:46;;;;;;;13.00;8.50;;;;;;;-0.32;82.43;96868.50;12989592;22;20094;-76
2021/01/12 09:23:09;;;;;;;12.20;8.63;;;;;;;-0.20;82.21;96871.66;12979193;22;20027;-77
2021/01/12 09:28:35;;;;;;;14.05;8.45;;;;;;;-0.04;81.77;96872.44;13012523;22;20027;-76
2021/01/12 09:33:55;;;;;;;11.38;7.70;;;;;;;0.03;81.30;96836.06;12989239;22;20034;-77
2021/01/12 09:39:15;;;;;;;12.35;8.25;;;;;;;0.11;80.34;96847.78;13011763;22;20032;-76
2021/01/12 09:44:35;;;;;;;11.45;8.23;;;;;;;0.14;80.06;96832.25;13013162;22;20384;-76
2021/01/12 09:49:55;;;;;;;13.95;8.30;;;;;;;0.35;79.00;96829.34;13011133;22;20058;-77
2021/01/12 09:55:16;;;;;;;14.32;9.35;;;;;;;0.38;79.66;96809.75;13013100;22;20090;-77
2021/01/12 10:00:36;;;;;;;12.10;8.23;;;;;;;0.49;80.42;96798.41;13011527;22;20035;-77
2021/01/12 10:05:55;;;;;;;10.70;8.52;;;;;;;0.40;79.29;96800.97;13011518;22;20097;-77
2021/01/12 10:11:17;;;;;;;13.20;8.93;;;;;;;0.40;79.76;96784.50;12989928;22;20030;-77
2021/01/12 10:16:37;;;;;;;12.60;8.90;;;;;;;0.69;79.23;96768.56;12967061;22;20032;-77
2021/01/12 10:21:57;;;;;;;14.63;9.30;;;;;;;0.62;79.21;96778.25;13004962;22;20028;-77
2021/01/12 10:27:17;;;;;;;13.18;9.75;;;;;;;0.65;79.79;96760.66;12967512;22;20030;-76
2021/01/12 10:32:37;;;;;;;13.75;9.73;;;;;;;0.71;80.75;96763.25;12986293;22;20466;-78
2021/01/12 10:37:57;;;;;;;14.25;10.20;;;;;;;0.62;79.71;96752.81;13009176;22;20035;-77
2021/01/12 10:43:19;;;;;;;13.73;10.20;;;;;;;0.49;79.40;96745.53;12986426;22;20034;-77
2021/01/12 10:48:58;;;;;;;14.25;10.02;;;;;;;0.66;79.34;96707.19;12996001;22;20031;-82
2021/01/12 11:07:31;;;;;;;15.30;11.07;;;;;;;0.54;78.72;96684.16;13084050;22;20019;-78
2021/01/12 11:12:51;;;;;;;16.30;11.05;;;;;;;0.59;78.74;96660.56;13039935;22;20092;-78
2021/01/12 11:18:12;;;;;;;13.25;10.15;;;;;;;0.54;78.18;96649.19;13054579;22;20027;-77
2021/01/12 11:23:31;;;;;;;12.75;9.65;;;;;;;0.62;78.15;96643.69;13055928;22;20458;-76
2021/01/12 11:28:51;;;;;;;13.95;10.23;;;;;;;0.65;77.81;96628.84;13032918;22;20031;-77
2021/01/12 11:34:12;;;;;;;15.07;11.13;;;;;;;0.62;78.01;96629.97;13032994;22;20480;-77
2021/01/12 11:39:35;;;;;;;13.23;9.88;;;;;;;0.72;77.23;96611.59;13054017;22;20498;-77
2021/01/12 11:44:55;;;;;;;12.35;9.82;;;;;;;0.81;77.07;96605.53;13077216;22;20027;-76
2021/01/12 11:50:15;;;;;;;13.93;10.48;;;;;;;0.92;76.81;96590.63;13053959;22;20047;-76
2021/01/12 12:01:55;;;;;;;14.05;10.13;;;;;;;0.86;75.44;96560.59;13095701;22;20224;-81
2021/01/12 12:14:00;;;;;;;12.95;9.60;;;;;;;1.07;75.33;96543.09;13032911;22;20358;-77
2021/01/12 12:19:21;;;;;;;18.42;10.30;;;;;;;1.19;74.83;96535.88;13076419;22;20055;-76
2021/01/12 12:24:40;;;;;;;11.57;8.55;;;;;;;1.08;74.38;96530.81;13053162;22;20029;-76
2021/01/12 12:30:00;;;;;;;11.10;8.32;;;;;;;1.00;73.47;96530.13;13074925;22;20031;-78
2021/01/12 12:35:20;;;;;;;12.85;8.35;;;;;;;0.95;73.26;96517.34;13076983;22;20080;-76
2021/01/12 12:40:41;;;;;;;10.27;8.02;;;;;;;1.04;75.51;96514.72;13078781;22;20049;-77
2021/01/12 12:46:01;;;;;;;15.52;8.70;;;;;;;1.09;73.42;96510.28;13054507;22;20027;-77
2021/01/12 12:51:21;;;;;;;11.50;8.55;;;;;;;1.03;74.75;96504.28;13055418;22;20047;-77
2021/01/12 13:02:34;;;;;;;10.65;7.85;;;;;;;0.89;74.62;96489.38;12934373;22;20092;-78
2021/01/12 13:07:54;;;;;;;9.20;7.40;;;;;;;0.82;75.53;96472.38;12970427;22;20027;-79
2021/01/12 13:13:14;;;;;;;10.80;7.72;;;;;;;0.71;77.59;96472.81;12993146;22;20034;-80
2021/01/12 13:18:38;;;;;;;10.60;7.38;;;;;;;0.78;77.36;96460.31;12995419;22;20092;-80
2021/01/12 13:23:58;;;;;;;8.07;6.85;;;;;;;0.77;77.92;96453.34;12964823;22;20032;-79
2021/01/12 13:29:20;;;;;;;9.27;7.05;;;;;;;0.70;77.64;96449.38;13033098;22;20089;-80
2021/01/12 13:34:40;;;;;;;7.97;6.20;;;;;;;0.71;77.49;96467.31;12971324;22;20027;-78
2021/01/12 13:40:00;;;;;;;8.40;6.13;;;;;;;0.73;77.57;96447.53;13010264;22;20034;-79
2021/01/12 13:45:21;;;;;;;8.50;6.70;;;;;;;0.67;77.86;96455.97;13009730;22;20497;-78
2021/01/12 13:50:41;;;;;;;8.52;6.28;;;;;;;0.67;77.98;96442.25;13008899;22;20028;-79
2021/01/12 13:56:01;;;;;;;8.25;5.38;;;;;;;0.63;78.71;96441.91;13009080;22;20051;-79
2021/01/12 14:01:21;;;;;;;6.95;5.35;;;;;;;0.56;79.59;96446.16;12987459;22;20058;-76
2021/01/12 14:06:41;;;;;;;9.43;5.07;;;;;;;0.57;80.07;96435.91;12963513;22;20028;-79
2021/01/12 14:12:17;;;;;;;6.80;5.10;;;;;;;0.48;79.98;96439.25;13025609;22;20018;-81
2021/01/12 14:18:32;;;;;;;6.00;4.78;;;;;;;0.53;79.98;96425.31;12949751;22;20032;-77
2021/01/12 14:23:52;;;;;;;6.18;4.82;;;;;;;0.47;79.58;96421.31;12964170;22;20058;-77
2021/01/12 14:29:13;;;;;;;6.78;4.78;;;;;;;0.48;79.53;96422.78;13008141;22;20035;-78
2021/01/12 14:34:33;;;;;;;6.47;4.63;;;;;;;0.55;78.55;96414.50;13009728;22;20350;-77
2021/01/12 14:40:02;;;;;;;6.50;4.25;;;;;;;0.68;77.92;96421.75;12967987;22;20050;-80
2021/01/12 14:45:26;;;;;;;5.50;4.18;;;;;;;0.72;77.91;96416.59;13048329;22;20027;-75
2021/01/12 14:50:46;;;;;;;6.03;4.15;;;;;;;0.72;76.72;96435.81;13075739;22;20061;-75
2021/01/12 14:56:12;;;;;;;4.70;3.53;;;;;;;0.80;77.03;96424.78;13078296;22;20027;-82
2021/01/12 15:01:41;;;;;;;4.63;3.60;;;;;;;0.76;79.60;96416.91;13033842;22;20027;-77
2021/01/12 15:07:01;;;;;;;6.05;3.83;;;;;;;0.74;79.30;96427.00;13053516;22;20047;-76
2021/01/12 15:12:22;;;;;;;6.07;3.42;;;;;;;0.72;78.76;96424.81;13075276;22;20031;-76
2021/01/12 15:17:41;;;;;;;4.57;3.47;;;;;;;0.71;78.70;96439.84;13079813;22;20087;-79
2021/01/12 15:23:02;;;;;;;4.68;3.60;;;;;;;0.67;78.90;96425.75;13075831;22;20027;-77
2021/01/12 15:28:23;;;;;;;4.15;3.42;;;;;;;0.70;78.67;96424.66;13079327;22;20102;-78
2021/01/12 15:34:02;;;;;;;7.03;3.13;;;;;;;0.70;79.38;96418.44;13084692;22;20037;-76
2021/01/12 15:39:23;;;;;;;19.40;3.90;;;;;;;0.73;79.38;96426.28;13074583;22;20054;-77
2021/01/12 15:44:43;;;;;;;4.07;3.05;;;;;;;0.71;79.28;96412.38;13089180;22;20027;-76
2021/01/12 15:50:04;;;;;;;6.43;2.70;;;;;;;0.72;79.27;96421.34;13078624;22;20450;-75
2021/01/12 15:55:25;;;;;;;5.43;3.00;;;;;;;0.76;78.93;96419.66;13079920;22;20031;-78
2021/01/12 16:00:45;;;;;;;4.43;2.95;;;;;;;0.79;78.98;96440.53;13078957;22;20050;-77
2021/01/12 16:06:05;;;;;;;3.88;2.80;;;;;;;0.84;79.01;96431.31;13077099;22;20023;-78
2021/01/12 16:11:26;;;;;;;3.15;2.50;;;;;;;0.85;79.05;96423.81;13077713;22;20027;-78
2021/01/12 16:16:46;;;;;;;4.18;2.35;;;;;;;0.83;79.91;96424.38;13055185;22;20342;-78
2021/01/12 16:22:09;;;;;;;3.80;2.65;;;;;;;0.74;81.17;96427.72;13074904;22;20027;-77
2021/01/12 16:27:30;;;;;;;3.33;2.47;;;;;;;0.73;81.39;96415.28;13031765;22;20027;-77
2021/01/12 16:32:59;;;;;;;3.30;2.40;;;;;;;0.80;81.00;96431.00;13075697;22;20445;-79
2021/01/12 16:38:41;;;;;;;3.17;2.30;;;;;;;0.80;81.34;96427.53;13062035;22;20034;-78
2021/01/12 16:44:09;;;;;;;3.30;2.50;;;;;;;0.79;81.27;96426.06;13064396;22;20027;-78
2021/01/12 16:49:51;;;;;;;3.13;2.22;;;;;;;0.81;81.15;96442.72;13051366;22;20035;-78
2021/01/12 16:55:18;;;;;;;3.97;2.42;;;;;;;0.85;81.21;96427.28;13140508;22;20457;-78
2021/01/12 17:00:38;;;;;;;2.97;2.10;;;;;;;0.92;80.74;96433.28;13088509;22;20050;-80
2021/01/12 17:06:01;;;;;;;2.35;1.90;;;;;;;0.96;80.59;96442.56;13077897;22;20027;-78
2021/01/12 17:11:27;;;;;;;2.88;2.05;;;;;;;1.00;80.87;96451.19;13118665;22;20026;-78
2021/01/12 17:16:54;;;;;;;2.33;1.83;;;;;;;1.02;80.64;96467.81;13056507;22;20093;-78
2021/01/12 17:28:37;;;;;;;3.78;1.95;;;;;;;1.12;79.82;96471.41;13114739;22;20034;-79
2021/01/12 17:40:50;;;;;;;2.88;2.33;;;;;;;1.18;79.90;96478.72;13107307;22;20102;-73
2021/01/12 17:46:25;;;;;;;2.65;1.60;;;;;;;1.21;80.21;96466.59;13106729;22;20017;-78
2021/01/12 17:52:15;;;;;;;3.05;2.00;;;;;;;1.20;79.81;96482.34;13051452;22;20035;-79
2021/01/12 17:57:40;;;;;;;2.28;1.63;;;;;;;1.24;79.85;96490.91;13055724;22;20027;-78
2021/01/12 18:03:11;;;;;;;3.70;1.60;;;;;;;1.29;79.37;96498.22;13025350;22;20027;-79
2021/01/12 18:15:02;;;;;;;2.95;1.33;;;;;;;1.31;79.16;96519.66;13092422;22;20041;-76
2021/01/12 18:20:25;;;;;;;1.90;1.38;;;;;;;1.31;79.41;96536.16;13096141;22;20019;-76
2021/01/12 18:25:48;;;;;;;2.75;1.73;;;;;;;1.33;79.10;96548.03;13144167;22;20027;-78
2021/01/12 18:31:11;;;;;;;2.85;1.65;;;;;;;1.39;79.20;96562.28;13095007;22;20030;-75
2021/01/12 18:36:36;;;;;;;3.00;1.80;;;;;;;1.43;79.33;96573.63;13115942;22;20099;-75
2021/01/12 18:42:02;;;;;;;2.28;1.52;;;;;;;1.54;79.38;96585.47;13080564;22;20027;-79
2021/01/12 18:53:58;;;;;;;2.63;1.58;;;;;;;1.57;78.71;96587.09;12867131;22;20079;-77
2021/01/12 19:00:20;;;;;;;3.22;1.67;;;;;;;1.59;78.52;96590.75;12989539;22;20028;-82
2021/01/12 19:11:33;;;;;;;3.58;2.20;;;;;;;1.50;79.03;96585.13;12990190;22;20024;-79
2021/01/12 19:16:54;;;;;;;2.95;1.73;;;;;;;1.50;78.96;96598.88;12932916;22;20446;-80
2021/01/12 19:22:14;;;;;;;3.08;1.80;;;;;;;1.56;78.82;96608.38;13004492;22;20042;-80
2021/01/12 19:27:34;;;;;;;3.00;1.60;;;;;;;1.59;79.32;96614.78;13004881;22;20385;-80
2021/01/12 19:33:16;;;;;;;2.70;1.67;;;;;;;1.61;78.89;96629.41;12976744;22;20026;-79
2021/01/12 19:38:39;;;;;;;2.53;1.17;;;;;;;1.55;78.53;96637.19;12995077;22;20032;-80
2021/01/12 19:44:00;;;;;;;2.67;1.20;;;;;;;1.57;78.47;96658.63;12995377;22;20061;-78
2021/01/12 19:49:20;;;;;;;2.53;1.27;;;;;;;1.57;78.32;96680.63;13041694;22;20023;-79
2021/01/12 19:54:40;;;;;;;2.95;1.70;;;;;;;1.62;78.44;96694.16;13090446;22;20454;-80
2021/01/12 20:00:00;;;;;;;4.00;1.10;;;;;;;1.67;77.61;96709.00;13082782;22;20027;-79
2021/01/12 20:05:40;;;;;;;2.60;0.90;;;;;;;1.73;78.13;96720.50;13103485;22;20057;-81
2021/01/12 20:11:52;;;;;;;1.92;0.70;;;;;;;1.67;76.75;96714.50;13076623;22;20027;-83
2021/01/12 20:17:37;;;;;;;2.10;0.80;;;;;;;1.58;77.27;96745.34;13101754;22;20080;-77
2021/01/12 20:23:36;;;;;;;2.08;0.45;;;;;;;1.50;77.54;96753.63;13119504;22;20054;-79
2021/01/12 20:29:07;;;;;;;1.83;0.50;;;;;;;1.37;77.35;96771.13;13043941;22;20029;-82
2021/01/12 20:35:04;;;;;;;1.83;0.40;;;;;;;1.26;77.97;96785.28;12954304;22;20482;-82
2021/01/12 20:40:30;;;;;;;2.45;0.88;;;;;;;1.19;77.59;96791.53;12936880;22;20031;-81
2021/01/12 20:45:53;;;;;;;2.60;1.17;;;;;;;1.26;77.74;96796.28;12968506;22;20388;-80
2021/01/12 20:51:17;;;;;;;3.10;1.38;;;;;;;1.24;77.64;96804.31;13092092;22;20060;-78
2021/01/12 20:56:39;;;;;;;4.97;1.02;;;;;;;0.98;76.38;96808.25;13114617;22;20027;-78
